Janika — V2YK9 — position and weather

sailwx.info

Track history (hours):
 
Tides and Currents Weather Stations Pressure Air Temp Water Temp Dewpoint Dewpoint Depression Visibility Wind Speed Wind Dir Waves Ship Positions

Janika

Last reported at 2017-Jun-09 07:29 UTC. Time now 2017-Jun-24 05:18 UTC.
Position N 17°09' W 061°47'.
Warning: this ship's position is 14 days out of date.

; draft 2.6 m.

Type: Tug. MMSI: 305732000.

Date/timePositionNaut miles runAvg speedWind from/ knotsBaromVisibWave heightAir tempDewpointWater temp
2017-Jun-09 07:29N 17°09' W 061°47'0 0.0
2017-Jun-09 04:56N 17°09' W 061°47'0 0.0
2017-Jun-09 04:08N 17°09' W 061°47'0 0.0
2017-Jun-09 04:00N 17°09' W 061°47'0 0.0
2017-Jun-08 16:11N 17°09' W 061°47'0 0.0
2017-Jun-08 15:59N 17°09' W 061°47'0 0.0
2017-Jun-08 15:30N 17°09' W 061°47'0 0.0
2017-Jun-08 14:56N 17°09' W 061°47'0 0.0
2017-Jun-08 14:29N 17°09' W 061°47'0 0.0
2017-Jun-08 13:30N 17°09' W 061°47'0 0.0
2017-Jun-08 13:00N 17°09' W 061°47'0 0.0
2017-Jun-08 12:30N 17°09' W 061°47'0 0.0
2017-Jun-08 12:00N 17°09' W 061°47'0 0.0
2017-Jun-08 11:30N 17°09' W 061°47'0 0.0
2017-Jun-08 10:53N 17°09' W 061°47'0 0.0
2017-Jun-08 10:27N 17°09' W 061°47'0 0.0
2017-Jun-08 10:00N 17°09' W 061°47'0 0.0
2017-Jun-08 09:30N 17°09' W 061°47'0 0.0
2017-Jun-08 09:00N 17°09' W 061°47'0 0.0
2017-Jun-08 08:30N 17°09' W 061°47'36 1.7
2017-Jun-07 11:25N 16°45' W 062°15'2 5.4
2017-Jun-07 11:00N 16°47' W 062°15'3 5.2
2017-Jun-07 10:30N 16°50' W 062°14'31 5.1
2017-Jun-07 04:27N 17°17' W 061°59'4 5.3
2017-Jun-07 03:46N 17°20' W 061°57'2 5.2
2017-Jun-07 03:28N 17°22' W 061°56'3 5.4
2017-Jun-07 03:00N 17°24' W 061°55'12 5.4
2017-Jun-07 00:45N 17°35' W 061°50'0 1.7
2017-Jun-07 00:30N 17°35' W 061°49'0 0.4
2017-Jun-06 23:56N 17°35' W 061°49'0 0.0
2017-Jun-06 23:30N 17°35' W 061°49'0 0.0
2017-Jun-06 22:58N 17°35' W 061°49'0 0.0
2017-Jun-06 22:30N 17°35' W 061°49'0 0.0
2017-Jun-06 21:44N 17°35' W 061°49'0 0.0
2017-Jun-06 21:30N 17°35' W 061°49'0 0.0
2017-Jun-06 21:00N 17°35' W 061°49'0 0.0
2017-Jun-06 20:10N 17°35' W 061°49'0 0.0
2017-Jun-06 19:48N 17°35' W 061°49'0 0.0
2017-Jun-06 19:19N 17°35' W 061°49'0 0.0
2017-Jun-06 17:58N 17°35' W 061°49'0 0.0
2017-Jun-06 17:08N 17°35' W 061°49'0 0.0
2017-Jun-06 15:39N 17°35' W 061°49'0 0.0
2017-Jun-06 15:30N 17°35' W 061°49'0 0.0
2017-Jun-06 15:00N 17°35' W 061°49'0 0.0
2017-Jun-06 13:43N 17°35' W 061°49'0 0.0
2017-Jun-06 13:16N 17°35' W 061°49'0 0.0
2017-Jun-06 12:48N 17°35' W 061°49'0 0.0
2017-Jun-06 12:27N 17°35' W 061°49'0 0.0
2017-Jun-06 11:59N 17°35' W 061°49'0 0.0
2017-Jun-06 11:24N 17°35' W 061°49'0 0.0
2017-Jun-06 11:00N 17°35' W 061°49'0 0.0
2017-Jun-06 09:52N 17°35' W 061°49'0 0.0
2017-Jun-06 09:14N 17°35' W 061°49'0 0.0
2017-Jun-06 08:56N 17°35' W 061°49'0 0.0
2017-Jun-06 08:26N 17°35' W 061°49'0 0.0
2017-Jun-06 08:00N 17°35' W 061°49'0 0.0
2017-Jun-06 07:29N 17°35' W 061°49'0 0.0
2017-Jun-06 07:00N 17°35' W 061°49'0 0.0
2017-Jun-06 06:30N 17°35' W 061°49'0 0.0
2017-Jun-06 06:00N 17°35' W 061°49'0 0.0
2017-Jun-06 05:30N 17°35' W 061°49'0 0.0
2017-Jun-06 05:00N 17°35' W 061°49'0 0.0
2017-Jun-06 04:30N 17°35' W 061°49'0 0.0
2017-Jun-06 03:59N 17°35' W 061°49'0 0.0
2017-Jun-06 03:30N 17°35' W 061°49'0 0.0
2017-Jun-06 03:00N 17°35' W 061°49'0 0.0
2017-Jun-06 02:30N 17°35' W 061°49'0 0.0
2017-Jun-06 02:00N 17°35' W 061°49'0 0.0
2017-Jun-06 01:30N 17°35' W 061°49'0 0.0
2017-Jun-06 01:00N 17°35' W 061°49'0 0.0
2017-Jun-06 00:30N 17°35' W 061°49'0 0.0
2017-Jun-06 00:00N 17°35' W 061°49'0 0.0
2017-Jun-05 23:30N 17°35' W 061°49'0 0.0
2017-Jun-05 23:00N 17°35' W 061°49'0 0.0
2017-Jun-05 22:30N 17°35' W 061°49'0 0.0
2017-Jun-05 22:00N 17°35' W 061°49'0 0.0
2017-Jun-05 21:30N 17°35' W 061°49'0 0.0
2017-Jun-05 13:49N 17°35' W 061°49'0 0.0
2017-Jun-05 13:27N 17°35' W 061°49'0 0.0
2017-Jun-05 12:56N 17°35' W 061°49'0 0.0
2017-Jun-05 10:38N 17°35' W 061°49'0 0.0
2017-Jun-05 10:30N 17°35' W 061°49'0 0.0
2017-Jun-05 10:00N 17°35' W 061°49'0 0.0
2017-Jun-05 09:30N 17°35' W 061°49'0 0.0
2017-Jun-05 08:59N 17°35' W 061°49'0 0.0
2017-Jun-05 08:30N 17°35' W 061°49'0 0.0
2017-Jun-05 08:00N 17°35' W 061°49'0 0.0
2017-Jun-05 07:30N 17°35' W 061°49'0 0.0
2017-Jun-05 07:00N 17°35' W 061°49'0 0.0
2017-Jun-05 06:30N 17°35' W 061°49'0 0.0
2017-Jun-05 06:00N 17°35' W 061°49'0 0.0
2017-Jun-05 05:30N 17°35' W 061°49'0 0.0
2017-Jun-05 05:00N 17°35' W 061°49'0 0.0
2017-Jun-05 04:30N 17°35' W 061°49'0 0.0
2017-Jun-05 04:00N 17°35' W 061°49'0 0.0
2017-Jun-05 03:30N 17°35' W 061°49'0 0.0
2017-Jun-05 03:00N 17°35' W 061°49'0 0.0
2017-Jun-05 02:30N 17°35' W 061°49'0 0.0
2017-Jun-05 02:00N 17°35' W 061°49'0 0.0
2017-Jun-05 01:30N 17°35' W 061°49'0 0.0
2017-Jun-05 01:00N 17°35' W 061°49'0 0.0
2017-Jun-05 00:30N 17°35' W 061°49'0 0.0
2017-Jun-05 00:00N 17°35' W 061°49'0 0.0
2017-Jun-04 23:26N 17°35' W 061°49'0 0.0
2017-Jun-04 21:20N 17°35' W 061°49'0 0.0
2017-Jun-04 20:55N 17°35' W 061°49'0 0.0
2017-Jun-04 20:30N 17°35' W 061°49'0 0.0
2017-Jun-04 20:00N 17°35' W 061°49'0 0.0
2017-Jun-04 17:25N 17°35' W 061°49'0 0.0
2017-Jun-04 16:25N 17°35' W 061°49'0 0.0
2017-Jun-04 15:28N 17°35' W 061°49'0 0.0
2017-Jun-04 15:00N 17°35' W 061°49'0 0.0
2017-Jun-04 14:29N 17°35' W 061°49'0 0.0
2017-Jun-04 13:29N 17°35' W 061°49'0 0.0
2017-Jun-04 13:00N 17°35' W 061°49'0 0.0
2017-Jun-04 12:30N 17°35' W 061°49'0 0.0
2017-Jun-04 12:00N 17°35' W 061°49'0 0.0
2017-Jun-04 11:30N 17°35' W 061°49'0 0.0
2017-Jun-04 11:00N 17°35' W 061°49'0 0.0
2017-Jun-04 10:30N 17°35' W 061°49'0 0.0
2017-Jun-04 10:00N 17°35' W 061°49'0 0.0
2017-Jun-04 09:30N 17°35' W 061°49'0 0.0
2017-Jun-04 09:00N 17°35' W 061°49'0 0.0
2017-Jun-04 08:30N 17°35' W 061°49'0 0.0
2017-Jun-04 08:00N 17°35' W 061°49'0 0.0
2017-Jun-04 07:30N 17°35' W 061°49'0 0.0
2017-Jun-04 07:00N 17°35' W 061°49'0 0.0
2017-Jun-04 06:30N 17°35' W 061°49'0 0.0
2017-Jun-04 02:22N 17°35' W 061°49'0 0.0
2017-Jun-04 01:56N 17°35' W 061°49'0 0.0
2017-Jun-04 01:05N 17°35' W 061°49'0 0.0
2017-Jun-04 01:00N 17°35' W 061°49'0 0.0
2017-Jun-04 00:26N 17°35' W 061°49'0 0.0
2017-Jun-03 23:10N 17°35' W 061°49'0 0.0
2017-Jun-03 21:04N 17°35' W 061°49'0 0.0
2017-Jun-03 20:59N 17°35' W 061°49'0 0.0
2017-Jun-03 19:01N 17°35' W 061°49'0 0.0
2017-Jun-03 19:00N 17°35' W 061°49'1 0.1
2017-Jun-03 11:27N 17°35' W 061°50'1 0.8
2017-Jun-03 10:41N 17°35' W 061°49'0 0.0
2017-Jun-03 09:37N 17°35' W 061°49'0 0.0
2017-Jun-03 09:00N 17°35' W 061°49'0 0.0
2017-Jun-03 01:44N 17°35' W 061°49'0 0.0
2017-Jun-03 01:29N 17°35' W 061°49'0 0.0
2017-Jun-03 01:00N 17°35' W 061°49'0 0.0
2017-Jun-03 00:19N 17°35' W 061°49'0 0.0
2017-Jun-02 23:58N 17°35' W 061°49'0 0.0
2017-Jun-02 23:27N 17°35' W 061°49'0 0.0
2017-Jun-02 23:00N 17°35' W 061°49'0 0.0
2017-Jun-02 22:06N 17°35' W 061°49'0 0.0
2017-Jun-02 22:00N 17°35' W 061°49'0 0.0
2017-Jun-02 21:28N 17°35' W 061°49'0 0.0
2017-Jun-02 20:54N 17°35' W 061°49'0 0.0
2017-Jun-02 20:30N 17°35' W 061°49'0 0.3
2017-Jun-02 20:00N 17°35' W 061°49'0 0.9
2017-Jun-02 19:30N 17°35' W 061°49'3 5.6
2017-Jun-02 19:00N 17°32' W 061°50'3 6.3
2017-Jun-02 18:30N 17°29' W 061°50'3 6.0
2017-Jun-02 18:00N 17°26' W 061°50'3 6.0
2017-Jun-02 17:30N 17°23' W 061°49'3 6.0
2017-Jun-02 17:00N 17°20' W 061°48'3 5.9
2017-Jun-02 16:30N 17°17' W 061°48'3 5.2
2017-Jun-02 16:00N 17°15' W 061°48'3 5.0
2017-Jun-02 15:30N 17°12' W 061°48'3 6.0
2017-Jun-02 15:00N 17°09' W 061°47'0 0.9
2017-Jun-02 14:30N 17°09' W 061°47'0 0.0
2017-Jun-02 13:26N 17°09' W 061°47'0 0.0
2017-Jun-02 13:00N 17°09' W 061°47'0 0.0
2017-Jun-02 08:30N 17°09' W 061°47'0 0.0
2017-Jun-01 17:52N 17°09' W 061°47'0 0.0
2017-Jun-01 11:00N 17°09' W 061°47'0 0.0
2017-Jun-01 10:11N 17°09' W 061°47'0 0.4
2017-Jun-01 09:15N 17°09' W 061°47'1 2.4
2017-Jun-01 08:51N 17°10' W 061°47'21 3.2
2017-Jun-01 02:18N 16°58' W 062°05'2 3.2
2017-Jun-01 01:42N 16°56' W 062°06'2 3.2
2017-Jun-01 00:58N 16°55' W 062°08'2 3.3
2017-Jun-01 00:28N 16°54' W 062°09'2 3.3
2017-May-31 23:43N 16°52' W 062°11'1 3.3
2017-May-31 23:27N 16°51' W 062°12'4 3.1
2017-May-31 22:15N 16°48' W 062°14'1 3.1
2017-May-31 21:49N 16°47' W 062°15'  
Track history (hours):
 
Tides and Currents Weather Stations Pressure Air Temp Water Temp Dewpoint Dewpoint Depression Visibility Wind Speed Wind Dir Waves Ship Positions

Janika

Last reported at 2017-Jun-09 07:29 UTC. Time now 2017-Jun-24 05:18 UTC.
Position N 17°09' W 061°47'.
Warning: this ship's position is 14 days out of date.

; draft 2.6 m.

Type: Tug. MMSI: 305732000.

Date/timePositionNaut miles runAvg speedWind from/ knotsBaromVisibWave heightAir tempDewpointWater temp
2017-Jun-09 07:29N 17°09' W 061°47'0 0.0
2017-Jun-09 04:56N 17°09' W 061°47'0 0.0
2017-Jun-09 04:08N 17°09' W 061°47'0 0.0
2017-Jun-09 04:00N 17°09' W 061°47'0 0.0
2017-Jun-08 16:11N 17°09' W 061°47'0 0.0
2017-Jun-08 15:59N 17°09' W 061°47'0 0.0
2017-Jun-08 15:30N 17°09' W 061°47'0 0.0
2017-Jun-08 14:56N 17°09' W 061°47'0 0.0
2017-Jun-08 14:29N 17°09' W 061°47'0 0.0
2017-Jun-08 13:30N 17°09' W 061°47'0 0.0
2017-Jun-08 13:00N 17°09' W 061°47'0 0.0
2017-Jun-08 12:30N 17°09' W 061°47'0 0.0
2017-Jun-08 12:00N 17°09' W 061°47'0 0.0
2017-Jun-08 11:30N 17°09' W 061°47'0 0.0
2017-Jun-08 10:53N 17°09' W 061°47'0 0.0
2017-Jun-08 10:27N 17°09' W 061°47'0 0.0
2017-Jun-08 10:00N 17°09' W 061°47'0 0.0
2017-Jun-08 09:30N 17°09' W 061°47'0 0.0
2017-Jun-08 09:00N 17°09' W 061°47'0 0.0
2017-Jun-08 08:30N 17°09' W 061°47'36 1.7
2017-Jun-07 11:25N 16°45' W 062°15'2 5.4
2017-Jun-07 11:00N 16°47' W 062°15'3 5.2
2017-Jun-07 10:30N 16°50' W 062°14'31 5.1
2017-Jun-07 04:27N 17°17' W 061°59'4 5.3
2017-Jun-07 03:46N 17°20' W 061°57'2 5.2
2017-Jun-07 03:28N 17°22' W 061°56'3 5.4
2017-Jun-07 03:00N 17°24' W 061°55'12 5.4
2017-Jun-07 00:45N 17°35' W 061°50'0 1.7
2017-Jun-07 00:30N 17°35' W 061°49'0 0.4
2017-Jun-06 23:56N 17°35' W 061°49'0 0.0
2017-Jun-06 23:30N 17°35' W 061°49'0 0.0
2017-Jun-06 22:58N 17°35' W 061°49'0 0.0
2017-Jun-06 22:30N 17°35' W 061°49'0 0.0
2017-Jun-06 21:44N 17°35' W 061°49'0 0.0
2017-Jun-06 21:30N 17°35' W 061°49'0 0.0
2017-Jun-06 21:00N 17°35' W 061°49'0 0.0
2017-Jun-06 20:10N 17°35' W 061°49'0 0.0
2017-Jun-06 19:48N 17°35' W 061°49'0 0.0
2017-Jun-06 19:19N 17°35' W 061°49'0 0.0
2017-Jun-06 17:58N 17°35' W 061°49'0 0.0
2017-Jun-06 17:08N 17°35' W 061°49'0 0.0
2017-Jun-06 15:39N 17°35' W 061°49'0 0.0
2017-Jun-06 15:30N 17°35' W 061°49'0 0.0
2017-Jun-06 15:00N 17°35' W 061°49'0 0.0
2017-Jun-06 13:43N 17°35' W 061°49'0 0.0
2017-Jun-06 13:16N 17°35' W 061°49'0 0.0
2017-Jun-06 12:48N 17°35' W 061°49'0 0.0
2017-Jun-06 12:27N 17°35' W 061°49'0 0.0
2017-Jun-06 11:59N 17°35' W 061°49'0 0.0
2017-Jun-06 11:24N 17°35' W 061°49'0 0.0
2017-Jun-06 11:00N 17°35' W 061°49'0 0.0
2017-Jun-06 09:52N 17°35' W 061°49'0 0.0
2017-Jun-06 09:14N 17°35' W 061°49'0 0.0
2017-Jun-06 08:56N 17°35' W 061°49'0 0.0
2017-Jun-06 08:26N 17°35' W 061°49'0 0.0
2017-Jun-06 08:00N 17°35' W 061°49'0 0.0
2017-Jun-06 07:29N 17°35' W 061°49'0 0.0
2017-Jun-06 07:00N 17°35' W 061°49'0 0.0
2017-Jun-06 06:30N 17°35' W 061°49'0 0.0
2017-Jun-06 06:00N 17°35' W 061°49'0 0.0
2017-Jun-06 05:30N 17°35' W 061°49'0 0.0
2017-Jun-06 05:00N 17°35' W 061°49'0 0.0
2017-Jun-06 04:30N 17°35' W 061°49'0 0.0
2017-Jun-06 03:59N 17°35' W 061°49'0 0.0
2017-Jun-06 03:30N 17°35' W 061°49'0 0.0
2017-Jun-06 03:00N 17°35' W 061°49'0 0.0
2017-Jun-06 02:30N 17°35' W 061°49'0 0.0
2017-Jun-06 02:00N 17°35' W 061°49'0 0.0
2017-Jun-06 01:30N 17°35' W 061°49'0 0.0
2017-Jun-06 01:00N 17°35' W 061°49'0 0.0
2017-Jun-06 00:30N 17°35' W 061°49'0 0.0
2017-Jun-06 00:00N 17°35' W 061°49'0 0.0
2017-Jun-05 23:30N 17°35' W 061°49'0 0.0
2017-Jun-05 23:00N 17°35' W 061°49'0 0.0
2017-Jun-05 22:30N 17°35' W 061°49'0 0.0
2017-Jun-05 22:00N 17°35' W 061°49'0 0.0
2017-Jun-05 21:30N 17°35' W 061°49'0 0.0
2017-Jun-05 13:49N 17°35' W 061°49'0 0.0
2017-Jun-05 13:27N 17°35' W 061°49'0 0.0
2017-Jun-05 12:56N 17°35' W 061°49'0 0.0
2017-Jun-05 10:38N 17°35' W 061°49'0 0.0
2017-Jun-05 10:30N 17°35' W 061°49'0 0.0
2017-Jun-05 10:00N 17°35' W 061°49'0 0.0
2017-Jun-05 09:30N 17°35' W 061°49'0 0.0
2017-Jun-05 08:59N 17°35' W 061°49'0 0.0
2017-Jun-05 08:30N 17°35' W 061°49'0 0.0
2017-Jun-05 08:00N 17°35' W 061°49'0 0.0
2017-Jun-05 07:30N 17°35' W 061°49'0 0.0
2017-Jun-05 07:00N 17°35' W 061°49'0 0.0
2017-Jun-05 06:30N 17°35' W 061°49'0 0.0
2017-Jun-05 06:00N 17°35' W 061°49'0 0.0
2017-Jun-05 05:30N 17°35' W 061°49'0 0.0
2017-Jun-05 05:00N 17°35' W 061°49'0 0.0
2017-Jun-05 04:30N 17°35' W 061°49'0 0.0
2017-Jun-05 04:00N 17°35' W 061°49'0 0.0
2017-Jun-05 03:30N 17°35' W 061°49'0 0.0
2017-Jun-05 03:00N 17°35' W 061°49'0 0.0
2017-Jun-05 02:30N 17°35' W 061°49'0 0.0
2017-Jun-05 02:00N 17°35' W 061°49'0 0.0
2017-Jun-05 01:30N 17°35' W 061°49'0 0.0
2017-Jun-05 01:00N 17°35' W 061°49'0 0.0
2017-Jun-05 00:30N 17°35' W 061°49'0 0.0
2017-Jun-05 00:00N 17°35' W 061°49'0 0.0
2017-Jun-04 23:26N 17°35' W 061°49'0 0.0
2017-Jun-04 21:20N 17°35' W 061°49'0 0.0
2017-Jun-04 20:55N 17°35' W 061°49'0 0.0
2017-Jun-04 20:30N 17°35' W 061°49'0 0.0
2017-Jun-04 20:00N 17°35' W 061°49'0 0.0
2017-Jun-04 17:25N 17°35' W 061°49'0 0.0
2017-Jun-04 16:25N 17°35' W 061°49'0 0.0
2017-Jun-04 15:28N 17°35' W 061°49'0 0.0
2017-Jun-04 15:00N 17°35' W 061°49'0 0.0
2017-Jun-04 14:29N 17°35' W 061°49'0 0.0
2017-Jun-04 13:29N 17°35' W 061°49'0 0.0
2017-Jun-04 13:00N 17°35' W 061°49'0 0.0
2017-Jun-04 12:30N 17°35' W 061°49'0 0.0
2017-Jun-04 12:00N 17°35' W 061°49'0 0.0
2017-Jun-04 11:30N 17°35' W 061°49'0 0.0
2017-Jun-04 11:00N 17°35' W 061°49'0 0.0
2017-Jun-04 10:30N 17°35' W 061°49'0 0.0
2017-Jun-04 10:00N 17°35' W 061°49'0 0.0
2017-Jun-04 09:30N 17°35' W 061°49'0 0.0
2017-Jun-04 09:00N 17°35' W 061°49'0 0.0
2017-Jun-04 08:30N 17°35' W 061°49'0 0.0
2017-Jun-04 08:00N 17°35' W 061°49'0 0.0
2017-Jun-04 07:30N 17°35' W 061°49'0 0.0
2017-Jun-04 07:00N 17°35' W 061°49'0 0.0
2017-Jun-04 06:30N 17°35' W 061°49'0 0.0
2017-Jun-04 02:22N 17°35' W 061°49'0 0.0
2017-Jun-04 01:56N 17°35' W 061°49'0 0.0
2017-Jun-04 01:05N 17°35' W 061°49'0 0.0
2017-Jun-04 01:00N 17°35' W 061°49'0 0.0
2017-Jun-04 00:26N 17°35' W 061°49'0 0.0
2017-Jun-03 23:10N 17°35' W 061°49'0 0.0
2017-Jun-03 21:04N 17°35' W 061°49'0 0.0
2017-Jun-03 20:59N 17°35' W 061°49'0 0.0
2017-Jun-03 19:01N 17°35' W 061°49'0 0.0
2017-Jun-03 19:00N 17°35' W 061°49'1 0.1
2017-Jun-03 11:27N 17°35' W 061°50'1 0.8
2017-Jun-03 10:41N 17°35' W 061°49'0 0.0
2017-Jun-03 09:37N 17°35' W 061°49'0 0.0
2017-Jun-03 09:00N 17°35' W 061°49'0 0.0
2017-Jun-03 01:44N 17°35' W 061°49'0 0.0
2017-Jun-03 01:29N 17°35' W 061°49'0 0.0
2017-Jun-03 01:00N 17°35' W 061°49'0 0.0
2017-Jun-03 00:19N 17°35' W 061°49'0 0.0
2017-Jun-02 23:58N 17°35' W 061°49'0 0.0
2017-Jun-02 23:27N 17°35' W 061°49'0 0.0
2017-Jun-02 23:00N 17°35' W 061°49'0 0.0
2017-Jun-02 22:06N 17°35' W 061°49'0 0.0
2017-Jun-02 22:00N 17°35' W 061°49'0 0.0
2017-Jun-02 21:28N 17°35' W 061°49'0 0.0
2017-Jun-02 20:54N 17°35' W 061°49'0 0.0
2017-Jun-02 20:30N 17°35' W 061°49'0 0.3
2017-Jun-02 20:00N 17°35' W 061°49'0 0.9
2017-Jun-02 19:30N 17°35' W 061°49'3 5.6
2017-Jun-02 19:00N 17°32' W 061°50'3 6.3
2017-Jun-02 18:30N 17°29' W 061°50'3 6.0
2017-Jun-02 18:00N 17°26' W 061°50'3 6.0
2017-Jun-02 17:30N 17°23' W 061°49'3 6.0
2017-Jun-02 17:00N 17°20' W 061°48'3 5.9
2017-Jun-02 16:30N 17°17' W 061°48'3 5.2
2017-Jun-02 16:00N 17°15' W 061°48'3 5.0
2017-Jun-02 15:30N 17°12' W 061°48'3 6.0
2017-Jun-02 15:00N 17°09' W 061°47'0 0.9
2017-Jun-02 14:30N 17°09' W 061°47'0 0.0
2017-Jun-02 13:26N 17°09' W 061°47'0 0.0
2017-Jun-02 13:00N 17°09' W 061°47'0 0.0
2017-Jun-02 08:30N 17°09' W 061°47'0 0.0
2017-Jun-01 17:52N 17°09' W 061°47'0 0.0
2017-Jun-01 11:00N 17°09' W 061°47'0 0.0
2017-Jun-01 10:11N 17°09' W 061°47'0 0.4
2017-Jun-01 09:15N 17°09' W 061°47'1 2.4
2017-Jun-01 08:51N 17°10' W 061°47'21 3.2
2017-Jun-01 02:18N 16°58' W 062°05'2 3.2
2017-Jun-01 01:42N 16°56' W 062°06'2 3.2
2017-Jun-01 00:58N 16°55' W 062°08'2 3.3
2017-Jun-01 00:28N 16°54' W 062°09'2 3.3
2017-May-31 23:43N 16°52' W 062°11'1 3.3
2017-May-31 23:27N 16°51' W 062°12'4 3.1
2017-May-31 22:15N 16°48' W 062°14'1 3.1
2017-May-31 21:49N 16°47' W 062°15'  

Dump ship's entire track history